map of SWO home
SWO - Airport
Location
City:  Stillwater, Oklahoma, United States
Name:Stillwater Regional
ICAO:KSWO
IATA:SWO
FAA LID:SWO

Details
Type:Airport (Part 139 Class I)
Use:Public/Civil
Latitude:3609'41"N (36.161389)
Longitude:9705'09"W (-97.085888)
Datum:WGS 1984
Elevation:1000 ft (305 m)
Variation:3.45E (WMM2015 magnetic declination)
-0.10 annual change
Runways:2
Longest:7401 × 100 ft (2256 × 30.5 m), paved

Time
Time Zone:UTC-6 (DST-5)
Local Time:

Weather
METAR:KSWO 140853Z AUTO 35005KT 10SM CLR 07/M03 A3002 RMK AO2 SLP162 T00721033 53017

Related Locations
Nearby:
Farthest:RRG: 10800 mi / 17381 km
Plaine Corail [Sir Gatan Duval Airport (Plaine Corail Airport)], Rodrigues Island, MU

Find:

   beyond  
but within

Other Information
Maps:
NOTAMs:
Links:
Sources:

  
flag of United States
flag of Oklahoma
  

Airport Diagram

Airport diagram for SWO

Airport diagram PDF

Sectional Chart

Flight Planning
at skyvector.com

Satellite Image

Google Maps Satellite view

 

Copyright © 2004-2017 Karl L. Swartz. All rights reserved.
The Great Circle Mapper name and logo are trademarks of the Great Circle Mapper.
All other trademarks mentioned herein belong to their respective owners.
Please see credits for attibutions and further copyright information.

  Follow gcmap on Facebook Follow gcmap on Twitter Follow gcmap on Google+ GCmap on LinkedIn

hCard Microformat

Geo Microformat